Time;durP1;ratioP1;P1;durP2;ratioP2;P2;SDS_P1;SDS_P2;PMS_P1;PMS_P2;Temp;Humidity;BMP_temperature;BMP_pressure;BME280_temperature;BME280_humidity;BME280_pressure;Samples;Min_cycle;Max_cycle;Signal;HPM_P1;HPM_P2
2023/07/22 00:00:26;;;;;;;6.00;2.90;;;23.70;72.20;;;;;;4987824;28;20022;-52
2023/07/22 00:02:52;;;;;;;5.97;2.60;;;23.70;72.30;;;;;;4986686;28;20046;-52
2023/07/22 00:05:23;;;;;;;9.15;2.70;;;23.70;72.30;;;;;;4986177;28;20038;-52
2023/07/22 00:07:49;;;;;;;7.88;3.00;;;23.70;72.30;;;;;;4986589;28;20375;-52
2023/07/22 00:10:14;;;;;;;6.47;3.15;;;23.70;72.40;;;;;;4987990;28;20058;-52
2023/07/22 00:12:40;;;;;;;8.50;4.30;;;23.60;72.40;;;;;;4986663;28;20382;-52
2023/07/22 00:15:06;;;;;;;9.63;4.63;;;23.60;72.40;;;;;;4986712;28;20034;-52
2023/07/22 00:17:31;;;;;;;5.78;3.72;;;23.60;72.40;;;;;;4986571;28;20039;-52
2023/07/22 00:19:57;;;;;;;12.77;4.10;;;23.60;72.40;;;;;;4986529;28;20399;-52
2023/07/22 00:22:23;;;;;;;10.23;3.58;;;23.60;72.40;;;;;;4986362;28;20031;-52
2023/07/22 00:24:48;;;;;;;7.63;3.20;;;23.60;72.50;;;;;;4987742;28;20023;-51
2023/07/22 00:27:14;;;;;;;4.53;3.20;;;23.60;72.50;;;;;;4987569;28;20103;-52
2023/07/22 00:29:39;;;;;;;5.00;3.20;;;23.60;72.60;;;;;;4986331;28;20038;-50
2023/07/22 00:32:07;;;;;;;4.88;3.05;;;23.60;72.60;;;;;;4970174;28;20030;-52
2023/07/22 00:34:32;;;;;;;7.13;3.17;;;23.50;72.60;;;;;;4970408;28;20027;-52
2023/07/22 00:36:58;;;;;;;4.57;3.08;;;23.50;72.70;;;;;;4987317;28;20035;-52
2023/07/22 00:39:24;;;;;;;7.03;3.25;;;23.50;72.80;;;;;;4986068;28;20054;-52
2023/07/22 00:41:50;;;;;;;5.32;3.00;;;23.50;72.80;;;;;;4986129;28;20113;-51
2023/07/22 00:44:15;;;;;;;6.40;3.10;;;23.50;72.80;;;;;;4969701;28;20035;-52
2023/07/22 00:46:41;;;;;;;7.97;3.20;;;23.50;72.80;;;;;;4987099;28;20095;-52
2023/07/22 00:49:07;;;;;;;5.32;2.90;;;23.50;72.80;;;;;;4985900;28;20066;-52
2023/07/22 00:51:33;;;;;;;5.82;2.90;;;23.50;72.80;;;;;;4985906;28;20102;-52
2023/07/22 00:53:58;;;;;;;9.02;3.10;;;23.50;72.90;;;;;;4985999;28;20035;-52
2023/07/22 00:56:24;;;;;;;6.55;2.55;;;23.40;73.00;;;;;;4986756;28;20031;-52
2023/07/22 00:58:50;;;;;;;6.72;2.70;;;23.40;73.10;;;;;;4969793;28;20031;-52
2023/07/22 01:01:15;;;;;;;6.18;3.00;;;23.40;73.20;;;;;;4969864;28;20019;-52
2023/07/22 01:03:41;;;;;;;6.97;3.10;;;23.40;73.40;;;;;;4969725;28;20023;-52
2023/07/22 01:06:07;;;;;;;6.53;2.45;;;23.40;73.50;;;;;;4985897;28;20027;-52
2023/07/22 01:08:32;;;;;;;4.28;2.60;;;23.40;73.80;;;;;;4969299;28;20037;-52
2023/07/22 01:10:59;;;;;;;6.88;2.78;;;23.40;74.00;;;;;;4987316;28;20031;-52
2023/07/22 01:13:24;;;;;;;5.53;2.90;;;23.40;74.10;;;;;;4986840;28;20047;-52
2023/07/22 01:15:50;;;;;;;3.60;2.60;;;23.40;74.10;;;;;;4986882;28;20040;-52
2023/07/22 01:18:15;;;;;;;5.03;3.90;;;23.40;74.10;;;;;;4953014;28;20041;-52
2023/07/22 01:20:41;;;;;;;5.13;3.28;;;23.40;74.10;;;;;;4969084;28;20023;-52
2023/07/22 01:23:06;;;;;;;4.38;3.25;;;23.40;74.10;;;;;;4969171;28;20386;-52
2023/07/22 01:25:32;;;;;;;6.57;3.72;;;23.40;74.20;;;;;;4985414;28;20034;-52
2023/07/22 01:27:57;;;;;;;4.55;3.60;;;23.40;74.30;;;;;;4969289;28;20037;-52
2023/07/22 01:30:23;;;;;;;7.53;3.70;;;23.30;74.50;;;;;;4985465;28;20051;-52
2023/07/22 01:32:50;;;;;;;5.28;3.17;;;23.30;74.80;;;;;;4985271;28;20038;-52
2023/07/22 01:35:15;;;;;;;5.70;2.83;;;23.30;75.20;;;;;;4969348;28;20027;-52
2023/07/22 01:37:41;;;;;;;7.03;3.20;;;23.30;75.50;;;;;;4969070;28;20030;-52
2023/07/22 01:40:13;;;;;;;4.95;3.28;;;23.30;75.50;;;;;;4986436;28;20023;-52
2023/07/22 01:42:39;;;;;;;6.53;3.33;;;23.30;75.90;;;;;;4984959;28;20030;-51
2023/07/22 01:45:07;;;;;;;12.57;3.83;;;23.30;76.00;;;;;;4986397;28;20019;-51
2023/07/22 01:47:34;;;;;;;7.88;2.90;;;23.20;76.40;;;;;;4985375;28;20035;-51
2023/07/22 01:50:00;;;;;;;8.73;3.45;;;23.20;76.50;;;;;;4985050;28;20102;-51
2023/07/22 01:52:25;;;;;;;5.60;3.08;;;23.20;76.70;;;;;;4986328;28;20042;-52
2023/07/22 01:54:51;;;;;;;5.80;3.70;;;23.30;76.70;;;;;;4968880;28;20027;-52
2023/07/22 01:57:16;;;;;;;7.47;2.85;;;23.20;76.50;;;;;;4985279;28;20089;-51
2023/07/22 01:59:42;;;;;;;8.13;3.38;;;23.20;76.70;;;;;;4987002;28;20074;-52
2023/07/22 02:02:07;;;;;;;6.32;3.30;;;23.20;76.90;;;;;;4986946;28;20118;-52
2023/07/22 02:04:33;;;;;;;4.50;3.25;;;23.20;77.00;;;;;;4987280;28;20034;-51
2023/07/22 02:06:58;;;;;;;6.38;3.13;;;23.20;77.10;;;;;;4985973;28;20034;-52
2023/07/22 02:09:24;;;;;;;6.40;3.15;;;23.20;77.30;;;;;;4986887;28;20106;-52
2023/07/22 02:11:49;;;;;;;6.35;3.05;;;23.20;77.40;;;;;;4987122;28;20038;-51
2023/07/22 02:14:15;;;;;;;5.28;3.65;;;23.20;77.50;;;;;;4985891;28;20442;-52
2023/07/22 02:16:41;;;;;;;6.95;3.95;;;23.10;77.40;;;;;;4985883;28;20047;-52
2023/07/22 02:19:06;;;;;;;8.48;3.70;;;23.10;77.40;;;;;;4969775;28;20031;-52
2023/07/22 02:21:32;;;;;;;6.40;3.47;;;23.10;77.40;;;;;;4987058;28;20034;-51
2023/07/22 02:23:58;;;;;;;4.10;3.30;;;23.10;77.40;;;;;;4969695;28;20057;-52
2023/07/22 02:26:23;;;;;;;5.85;3.60;;;23.10;77.60;;;;;;4969573;28;20031;-52
2023/07/22 02:28:49;;;;;;;6.35;3.67;;;23.10;77.70;;;;;;4988500;28;20089;-52
2023/07/22 02:31:14;;;;;;;3.88;2.92;;;23.10;77.80;;;;;;4990706;28;20027;-52
2023/07/22 02:33:40;;;;;;;10.20;3.72;;;23.00;77.90;;;;;;4989122;28;20098;-51
2023/07/22 02:36:06;;;;;;;9.93;2.95;;;23.00;77.90;;;;;;4989517;28;20027;-52
2023/07/22 02:38:31;;;;;;;8.05;3.00;;;23.00;78.20;;;;;;4989405;28;20045;-51
2023/07/22 02:41:06;;;;;;;4.53;3.08;;;23.00;78.40;;;;;;4989267;28;20031;-52
2023/07/22 02:43:32;;;;;;;4.22;3.28;;;23.00;78.50;;;;;;4973284;28;20027;-52
2023/07/22 02:45:59;;;;;;;5.00;3.22;;;23.00;78.70;;;;;;4990342;28;20027;-51
2023/07/22 02:48:25;;;;;;;5.00;3.40;;;23.00;78.70;;;;;;4972914;28;20450;-52
2023/07/22 02:50:50;;;;;;;6.90;3.65;;;23.00;78.70;;;;;;4990423;28;20030;-52
2023/07/22 02:53:16;;;;;;;6.07;3.42;;;22.90;78.90;;;;;;4990311;28;20057;-52
2023/07/22 02:55:41;;;;;;;7.78;3.47;;;22.90;79.00;;;;;;4989964;28;20031;-51
2023/07/22 02:58:07;;;;;;;12.10;4.03;;;22.90;79.10;;;;;;4988990;28;20031;-52
2023/07/22 03:00:32;;;;;;;5.28;3.70;;;22.90;79.20;;;;;;4989005;28;20081;-52
2023/07/22 03:03:00;;;;;;;8.18;3.80;;;22.90;79.20;;;;;;4988842;28;20034;-52
2023/07/22 03:05:29;;;;;;;9.27;3.97;;;22.90;79.30;;;;;;4989008;28;20038;-51
2023/07/22 03:07:55;;;;;;;5.05;4.13;;;22.90;79.40;;;;;;4988823;28;20042;-51
2023/07/22 03:10:20;;;;;;;9.55;4.20;;;22.90;79.60;;;;;;4990080;28;20058;-52
2023/07/22 03:12:47;;;;;;;4.93;3.78;;;22.90;79.90;;;;;;4988634;28;20039;-52
2023/07/22 03:15:12;;;;;;;7.50;3.58;;;22.80;79.90;;;;;;4988685;28;20110;-52
2023/07/22 03:17:38;;;;;;;4.93;3.53;;;22.80;79.80;;;;;;4972460;28;20121;-51
2023/07/22 03:20:14;;;;;;;8.13;3.65;;;22.80;79.90;;;;;;4989881;28;20027;-52
2023/07/22 03:22:43;;;;;;;;;;;22.80;80.00;;;;;;4990258;28;20054;-52
2023/07/22 03:25:12;;;;;;;6.05;3.63;;;22.80;80.10;;;;;;4988406;28;19906;-52
2023/07/22 03:27:37;;;;;;;7.50;3.70;;;22.80;80.20;;;;;;4988656;28;20126;-52
2023/07/22 03:30:04;;;;;;;5.63;3.83;;;22.80;80.20;;;;;;4972532;28;20042;-51
2023/07/22 03:32:29;;;;;;;4.80;3.63;;;22.80;80.20;;;;;;4989444;28;20058;-52
2023/07/22 03:34:55;;;;;;;6.00;3.47;;;22.80;80.20;;;;;;4989496;28;20023;-52
2023/07/22 03:37:27;;;;;;;6.97;3.30;;;22.70;80.20;;;;;;4988221;28;20047;-51
2023/07/22 03:39:53;;;;;;;5.15;3.08;;;22.70;80.30;;;;;;4988393;28;20030;-51
2023/07/22 03:42:18;;;;;;;7.88;3.22;;;22.70;80.30;;;;;;4989162;28;20034;-52
2023/07/22 03:44:44;;;;;;;5.53;3.30;;;22.70;80.40;;;;;;4971921;28;20490;-51
2023/07/22 03:47:09;;;;;;;7.15;3.60;;;22.70;80.40;;;;;;4988227;28;20026;-51
2023/07/22 03:49:35;;;;;;;5.20;3.47;;;22.70;80.50;;;;;;4989586;28;20109;-52
2023/07/22 03:52:01;;;;;;;4.68;3.60;;;22.70;80.50;;;;;;4971970;28;20390;-52
2023/07/22 03:54:26;;;;;;;6.93;3.67;;;22.60;80.50;;;;;;4987945;28;20031;-52
2023/07/22 03:56:52;;;;;;;5.55;3.25;;;22.60;80.50;;;;;;4989065;28;20041;-51
2023/07/22 03:59:17;;;;;;;4.95;3.20;;;22.60;80.50;;;;;;4989218;28;20063;-52
2023/07/22 04:01:43;;;;;;;5.03;3.25;;;22.60;80.60;;;;;;4987877;28;20055;-52
2023/07/22 04:04:08;;;;;;;6.43;3.35;;;22.60;80.70;;;;;;4955760;28;20418;-52
2023/07/22 04:06:34;;;;;;;6.03;3.40;;;22.60;80.70;;;;;;4988957;28;20038;-52
2023/07/22 04:09:00;;;;;;;3.90;3.03;;;22.60;80.70;;;;;;4987677;28;20038;-52
2023/07/22 04:11:26;;;;;;;12.10;3.10;;;22.50;80.60;;;;;;4988873;28;20038;-52
2023/07/22 04:13:52;;;;;;;5.45;2.78;;;22.50;80.60;;;;;;4987691;28;20042;-52
2023/07/22 04:16:17;;;;;;;4.65;3.13;;;22.50;80.80;;;;;;4988676;28;20030;-51
2023/07/22 04:18:43;;;;;;;5.20;2.65;;;22.50;81.00;;;;;;4988839;28;20041;-51
2023/07/22 04:21:08;;;;;;;9.23;3.20;;;22.50;81.00;;;;;;4988641;28;20042;-51
2023/07/22 04:23:34;;;;;;;6.78;3.17;;;22.50;81.00;;;;;;4988736;28;20035;-52
2023/07/22 04:26:10;;;;;;;5.60;3.20;;;22.50;81.10;;;;;;4987393;28;20022;-52
2023/07/22 04:28:35;;;;;;;5.25;3.05;;;22.40;81.10;;;;;;4987204;28;20035;-52
2023/07/22 04:31:01;;;;;;;4.30;2.90;;;22.40;81.00;;;;;;4970960;28;20034;-51
2023/07/22 04:33:27;;;;;;;7.80;2.90;;;22.40;81.00;;;;;;4971219;28;20039;-52
2023/07/22 04:35:55;;;;;;;3.85;2.67;;;22.40;81.10;;;;;;4987037;28;20478;-51
2023/07/22 04:38:21;;;;;;;4.00;3.03;;;22.40;81.10;;;;;;4971225;28;20487;-52
2023/07/22 04:40:46;;;;;;;6.90;3.10;;;22.40;81.30;;;;;;4987060;28;20058;-52
2023/07/22 04:43:12;;;;;;;6.28;3.22;;;22.40;81.40;;;;;;4987019;28;20386;-51
2023/07/22 04:45:40;;;;;;;7.60;2.80;;;22.30;81.30;;;;;;4986811;28;20031;-52
2023/07/22 04:48:05;;;;;;;5.68;2.78;;;22.30;81.40;;;;;;4988203;28;20042;-52
2023/07/22 04:50:31;;;;;;;5.13;2.60;;;22.30;81.50;;;;;;4986877;28;20027;-52
2023/07/22 04:52:56;;;;;;;5.70;2.70;;;22.30;81.50;;;;;;4970388;28;20035;-52
2023/07/22 04:55:22;;;;;;;4.53;3.03;;;22.30;81.70;;;;;;4987994;28;20030;-52
2023/07/22 04:57:48;;;;;;;11.45;3.08;;;22.20;81.60;;;;;;4986910;28;20035;-52
2023/07/22 05:00:16;;;;;;;5.65;2.88;;;22.30;81.80;;;;;;4970939;28;20091;-52
2023/07/22 05:02:43;;;;;;;6.40;2.70;;;22.20;81.90;;;;;;4986782;28;20042;-52
2023/07/22 05:05:09;;;;;;;4.25;2.45;;;22.20;81.80;;;;;;4986640;28;20023;-52
2023/07/22 05:07:35;;;;;;;3.40;2.35;;;22.20;81.90;;;;;;4970477;28;20035;-52
2023/07/22 05:10:00;;;;;;;3.00;2.60;;;22.20;81.90;;;;;;4986897;28;20486;-51
2023/07/22 05:12:26;;;;;;;2.90;2.58;;;22.20;81.90;;;;;;4971666;28;20106;-51
2023/07/22 05:14:51;;;;;;;6.68;2.60;;;22.20;81.90;;;;;;4969765;28;20051;-52
2023/07/22 05:17:17;;;;;;;6.13;2.80;;;22.20;81.90;;;;;;4968720;28;20059;-51
2023/07/22 05:19:43;;;;;;;5.05;2.50;;;22.10;81.90;;;;;;4967149;29;20361;-52
2023/07/22 05:22:08;;;;;;;6.97;2.35;;;22.10;82.00;;;;;;4968208;28;20031;-51
2023/07/22 05:24:34;;;;;;;4.38;2.47;;;22.10;82.10;;;;;;4950969;29;20031;-52
2023/07/22 05:26:59;;;;;;;4.38;2.72;;;22.10;82.90;;;;;;4950875;29;20360;-52
2023/07/22 05:29:25;;;;;;;2.97;2.45;;;22.10;82.40;;;;;;4966941;29;20457;-52
2023/07/22 05:31:51;;;;;;;4.03;2.97;;;22.10;82.30;;;;;;4968077;28;20031;-52
2023/07/22 05:34:16;;;;;;;3.13;2.45;;;22.10;82.30;;;;;;4966954;29;20043;-52
2023/07/22 05:36:42;;;;;;;4.65;2.20;;;22.10;82.30;;;;;;4966751;29;20035;-52
2023/07/22 05:39:07;;;;;;;2.83;2.53;;;22.10;82.40;;;;;;4966718;29;20032;-51
2023/07/22 05:41:33;;;;;;;5.32;2.60;;;22.10;82.40;;;;;;4967705;28;20086;-52
2023/07/22 05:43:59;;;;;;;5.18;2.60;;;22.00;82.30;;;;;;4966929;29;20032;-52
2023/07/22 05:46:24;;;;;;;5.45;2.50;;;22.10;82.40;;;;;;4966711;29;20094;-51
2023/07/22 05:48:50;;;;;;;4.85;2.35;;;22.00;82.40;;;;;;4968072;28;20036;-52
2023/07/22 05:51:16;;;;;;;3.80;2.75;;;22.00;82.40;;;;;;4950737;29;20038;-52
2023/07/22 05:53:41;;;;;;;4.65;2.40;;;22.10;82.40;;;;;;4966521;29;20047;-51
2023/07/22 05:56:07;;;;;;;3.58;2.42;;;22.00;82.30;;;;;;4966655;29;20051;-51
2023/07/22 05:58:33;;;;;;;4.55;2.45;;;22.00;82.30;;;;;;4967943;28;20095;-51
2023/07/22 06:00:58;;;;;;;4.78;2.58;;;22.00;82.30;;;;;;4966570;29;20027;-51
2023/07/22 06:03:24;;;;;;;2.63;2.33;;;22.00;82.40;;;;;;4967404;28;20031;-51
2023/07/22 06:05:49;;;;;;;4.07;2.55;;;22.00;82.30;;;;;;4970567;29;20031;-52
2023/07/22 06:08:15;;;;;;;4.72;2.40;;;22.00;82.30;;;;;;4970546;29;20035;-51
2023/07/22 06:10:40;;;;;;;2.40;2.08;;;22.00;82.30;;;;;;4971862;28;20038;-52
2023/07/22 06:13:06;;;;;;;6.05;2.55;;;22.00;83.00;;;;;;4971837;28;20042;-51
2023/07/22 06:15:32;;;;;;;3.03;2.35;;;21.90;82.30;;;;;;4970136;29;20028;-52
2023/07/22 06:17:57;;;;;;;4.03;2.25;;;21.90;82.30;;;;;;4971954;28;20028;-51
2023/07/22 06:20:23;;;;;;;3.95;2.30;;;21.90;82.30;;;;;;4970411;29;20453;-52
2023/07/22 06:22:49;;;;;;;4.45;2.38;;;21.90;82.30;;;;;;4970423;29;20039;-52
2023/07/22 06:25:14;;;;;;;3.88;2.28;;;22.10;82.30;;;;;;4970140;29;20028;-52
2023/07/22 06:27:40;;;;;;;2.88;2.40;;;22.00;82.20;;;;;;4971273;28;20042;-51
2023/07/22 06:30:06;;;;;;;3.22;2.47;;;22.00;82.30;;;;;;4970062;29;20423;-51
2023/07/22 06:32:31;;;;;;;4.72;2.28;;;22.00;82.40;;;;;;4954074;29;20082;-52
2023/07/22 06:34:57;;;;;;;4.93;2.50;;;21.90;82.30;;;;;;4971275;28;20019;-51
2023/07/22 06:37:24;;;;;;;5.07;2.63;;;21.90;82.40;;;;;;4970144;29;20449;-52
2023/07/22 06:39:49;;;;;;;3.65;2.28;;;22.00;82.50;;;;;;4970221;29;20098;-51
2023/07/22 06:42:15;;;;;;;5.00;2.55;;;21.90;82.50;;;;;;4969607;29;20035;-51
2023/07/22 06:44:40;;;;;;;2.60;2.08;;;21.90;82.50;;;;;;4969907;29;20035;-52
2023/07/22 06:47:06;;;;;;;3.13;2.40;;;21.90;82.60;;;;;;4970963;28;20030;-51
2023/07/22 06:49:32;;;;;;;5.22;2.53;;;21.90;82.60;;;;;;4969698;29;20055;-52
2023/07/22 06:51:58;;;;;;;4.55;2.20;;;21.90;82.70;;;;;;4970929;28;20019;-51
2023/07/22 06:54:23;;;;;;;4.60;2.40;;;21.90;82.70;;;;;;4970928;28;20035;-51
2023/07/22 06:56:49;;;;;;;7.13;2.45;;;21.90;82.70;;;;;;4969678;29;20031;-52
2023/07/22 06:59:14;;;;;;;3.25;2.22;;;21.90;82.40;;;;;;4970659;28;20023;-52
2023/07/22 07:01:40;;;;;;;2.63;2.28;;;21.90;82.30;;;;;;4953746;29;20095;-51
2023/07/22 07:04:06;;;;;;;3.13;2.20;;;21.90;82.20;;;;;;4969543;29;20039;-52
2023/07/22 07:06:32;;;;;;;4.25;2.13;;;21.90;82.50;;;;;;4970773;28;20035;-51
2023/07/22 07:09:00;;;;;;;3.92;2.17;;;22.00;82.60;;;;;;4970924;28;20023;-52
2023/07/22 07:11:26;;;;;;;2.65;2.42;;;21.90;82.50;;;;;;4970319;29;20119;-52
2023/07/22 07:13:52;;;;;;;5.28;2.60;;;21.90;82.50;;;;;;4986877;28;20031;-51
2023/07/22 07:16:25;;;;;;;4.18;2.40;;;21.90;82.50;;;;;;4989613;28;20023;-51
2023/07/22 07:18:51;;;;;;;3.90;2.10;;;21.90;82.40;;;;;;4989884;28;20031;-52
2023/07/22 07:21:20;;;;;;;3.88;2.53;;;21.90;82.30;;;;;;4972597;28;20041;-52
2023/07/22 07:23:45;;;;;;;2.30;2.10;;;21.90;82.40;;;;;;4972969;28;20058;-52
2023/07/22 07:26:11;;;;;;;3.67;2.33;;;21.90;82.30;;;;;;4988367;28;20030;-52
2023/07/22 07:28:37;;;;;;;3.88;2.22;;;21.90;82.20;;;;;;4972448;28;20031;-51
2023/07/22 07:31:02;;;;;;;2.97;2.00;;;21.90;82.10;;;;;;4988430;28;20066;-52
2023/07/22 07:33:28;;;;;;;2.58;2.00;;;21.90;81.90;;;;;;4989691;28;20035;-51
2023/07/22 07:35:54;;;;;;;4.28;2.30;;;22.00;82.00;;;;;;4989404;28;20038;-51
2023/07/22 07:38:19;;;;;;;3.65;2.42;;;21.90;82.00;;;;;;4988149;28;20031;-51
2023/07/22 07:40:45;;;;;;;5.07;2.50;;;21.90;82.00;;;;;;4971284;28;20026;-52
2023/07/22 07:43:10;;;;;;;2.75;2.25;;;22.00;81.90;;;;;;4987991;28;20039;-51
2023/07/22 07:45:38;;;;;;;4.53;1.95;;;21.90;81.50;;;;;;4988302;28;20090;-54
2023/07/22 07:48:05;;;;;;;4.30;2.05;;;21.90;81.30;;;;;;4988603;28;20142;-52
2023/07/22 07:50:30;;;;;;;3.05;1.85;;;21.90;81.00;;;;;;4990108;28;20039;-52
2023/07/22 07:52:56;;;;;;;3.15;1.92;;;22.00;80.80;;;;;;4988593;28;20142;-51
2023/07/22 07:55:21;;;;;;;3.20;2.20;;;22.00;80.60;;;;;;4987958;28;20027;-51
2023/07/22 07:57:47;;;;;;;2.00;1.80;;;22.00;80.30;;;;;;4968296;29;20031;-51
2023/07/22 08:00:13;;;;;;;2.78;2.13;;;22.00;80.10;;;;;;4969756;28;20023;-51
2023/07/22 08:02:38;;;;;;;3.88;2.10;;;22.00;79.60;;;;;;4987527;28;20233;-51
2023/07/22 08:05:05;;;;;;;1.73;1.50;;;22.00;79.20;;;;;;4987013;28;20058;-51
2023/07/22 08:07:31;;;;;;;2.85;1.80;;;22.00;78.10;;;;;;4987056;28;20027;-51
2023/07/22 08:09:57;;;;;;;5.85;2.38;;;22.00;77.70;;;;;;4971291;28;20037;-51
2023/07/22 08:12:23;;;;;;;8.40;2.13;;;22.00;77.10;;;;;;4988887;28;20042;-51
2023/07/22 08:14:49;;;;;;;7.88;2.58;;;22.00;77.00;;;;;;4989140;28;20038;-52
2023/07/22 08:17:14;;;;;;;7.80;2.17;;;22.00;76.40;;;;;;4987499;28;20031;-51
2023/07/22 08:19:40;;;;;;;4.15;2.00;;;22.00;75.60;;;;;;4988573;28;20035;-51
2023/07/22 08:22:06;;;;;;;2.75;1.67;;;22.00;75.30;;;;;;4988436;28;20035;-50
2023/07/22 08:24:32;;;;;;;9.55;2.30;;;22.00;75.30;;;;;;4985655;28;20112;-51
2023/07/22 08:26:58;;;;;;;11.15;2.20;;;22.00;75.20;;;;;;4984692;28;20031;-51
2023/07/22 08:29:24;;;;;;;8.95;2.53;;;22.00;75.00;;;;;;4985148;28;20070;-51
2023/07/22 08:31:49;;;;;;;6.45;2.40;;;22.00;74.80;;;;;;4985814;28;20026;-51
2023/07/22 08:34:15;;;;;;;10.82;2.70;;;22.00;74.40;;;;;;4985469;28;20034;-51
2023/07/22 08:36:41;;;;;;;7.90;3.08;;;22.00;74.70;;;;;;4985646;28;20022;-51
2023/07/22 08:39:07;;;;;;;24.67;3.75;;;22.10;74.70;;;;;;4987072;28;20026;-51
2023/07/22 08:41:33;;;;;;;19.55;4.43;;;22.10;74.40;;;;;;4986904;28;20027;-51
2023/07/22 08:43:59;;;;;;;17.70;3.58;;;22.10;74.60;;;;;;4987065;28;20038;-51
2023/07/22 08:46:25;;;;;;;22.75;3.95;;;22.10;74.70;;;;;;4988293;28;20031;-51
2023/07/22 08:48:53;;;;;;;24.83;3.92;;;22.10;74.80;;;;;;4970643;28;20506;-51
2023/07/22 08:51:18;;;;;;;17.33;3.70;;;22.20;74.80;;;;;;4986786;28;20509;-51
2023/07/22 08:53:45;;;;;;;24.63;4.35;;;22.20;74.90;;;;;;4970556;28;20035;-52
2023/07/22 08:56:11;;;;;;;29.20;5.10;;;22.20;74.90;;;;;;4986764;28;20031;-51
2023/07/22 08:58:36;;;;;;;33.70;4.80;;;22.20;74.60;;;;;;4986612;28;20494;-51
2023/07/22 09:01:02;;;;;;;41.15;5.10;;;22.30;74.50;;;;;;4970511;28;20030;-51
2023/07/22 09:03:28;;;;;;;26.42;5.03;;;22.30;74.10;;;;;;4986527;28;20031;-51
2023/07/22 09:05:54;;;;;;;37.53;6.05;;;22.40;74.30;;;;;;4986507;28;20403;-51
2023/07/22 09:08:20;;;;;;;35.70;6.68;;;22.30;74.00;;;;;;4986444;28;20098;-51
2023/07/22 09:10:46;;;;;;;34.83;5.30;;;22.40;73.90;;;;;;4970225;28;20522;-51
2023/07/22 09:13:13;;;;;;;43.28;6.40;;;22.40;73.70;;;;;;4986447;28;20093;-51
2023/07/22 09:15:38;;;;;;;48.17;6.10;;;22.40;73.60;;;;;;4986055;28;20030;-51
2023/07/22 09:18:04;;;;;;;23.20;4.97;;;22.40;73.40;;;;;;4970340;28;20038;-51
2023/07/22 09:20:30;;;;;;;68.35;8.13;;;22.40;73.50;;;;;;4986210;28;20026;-51
2023/07/22 09:22:55;;;;;;;40.72;6.70;;;22.50;73.70;;;;;;4970026;28;20031;-51
2023/07/22 09:25:25;;;;;;;51.00;7.15;;;22.40;73.90;;;;;;4986158;28;20034;-51
2023/07/22 09:27:55;;;;;;;78.53;8.93;;;22.50;74.10;;;;;;4986156;28;20062;-54
2023/07/22 09:30:39;;;;;;;65.38;8.30;;;22.50;74.30;;;;;;4969390;28;20050;-53
2023/07/22 09:33:06;;;;;;;63.13;8.90;;;22.50;75.00;;;;;;4985416;28;20432;-52
2023/07/22 09:35:43;;;;;;;49.80;8.40;;;22.50;76.10;;;;;;4987472;28;20099;-53
2023/07/22 09:38:09;;;;;;;54.25;8.35;;;22.50;76.60;;;;;;4986283;28;20031;-53
2023/07/22 09:40:34;;;;;;;72.68;10.18;;;22.50;76.50;;;;;;4987316;28;20058;-53
2023/07/22 09:43:04;;;;;;;65.65;9.32;;;22.50;77.30;;;;;;4987045;28;20031;-53
2023/07/22 09:45:30;;;;;;;86.68;10.70;;;22.50;78.10;;;;;;4986127;28;20027;-53
2023/07/22 09:47:56;;;;;;;58.72;9.80;;;22.50;78.50;;;;;;4969727;28;20062;-54
2023/07/22 09:50:26;;;;;;;130.07;16.00;;;22.50;78.60;;;;;;4987272;28;20046;-53
2023/07/22 09:52:52;;;;;;;148.85;17.33;;;22.50;79.30;;;;;;4985982;28;20099;-54
2023/07/22 09:55:21;;;;;;;98.43;13.70;;;22.50;79.70;;;;;;4969367;28;20062;-54
2023/07/22 09:57:49;;;;;;;89.38;12.82;;;22.50;80.10;;;;;;4985618;28;20065;-54
2023/07/22 10:00:15;;;;;;;91.25;12.85;;;22.60;80.40;;;;;;4985379;28;20033;-54
2023/07/22 10:02:43;;;;;;;108.97;15.02;;;22.60;80.90;;;;;;4985587;28;20039;-54
2023/07/22 10:05:11;;;;;;;98.13;12.55;;;22.60;81.00;;;;;;4969712;28;20030;-53
2023/07/22 10:07:38;;;;;;;75.20;12.13;;;22.60;81.00;;;;;;4986036;28;20043;-54
2023/07/22 10:10:03;;;;;;;115.68;13.77;;;22.60;80.90;;;;;;4983590;28;20034;-53
2023/07/22 10:12:29;;;;;;;89.05;13.00;;;22.60;80.90;;;;;;4967362;28;20102;-53
2023/07/22 10:14:55;;;;;;;85.22;11.68;;;22.60;80.80;;;;;;4967422;28;20041;-54
2023/07/22 10:17:21;;;;;;;83.60;10.93;;;22.70;80.90;;;;;;4983272;28;20046;-53
2023/07/22 10:19:46;;;;;;;75.07;9.80;;;22.70;81.50;;;;;;4967844;28;20113;-53
2023/07/22 10:22:12;;;;;;;71.75;10.13;;;22.70;81.30;;;;;;4985487;28;20015;-53
2023/07/22 10:24:39;;;;;;;49.38;9.55;;;22.70;81.10;;;;;;4969281;28;20029;-53
2023/07/22 10:27:05;;;;;;;64.13;9.93;;;22.80;81.20;;;;;;4985550;28;20027;-53
2023/07/22 10:29:30;;;;;;;83.95;11.68;;;22.80;81.30;;;;;;4985285;28;20042;-53
2023/07/22 10:31:56;;;;;;;74.07;11.02;;;22.80;81.10;;;;;;4985506;28;20023;-53
2023/07/22 10:34:23;;;;;;;54.90;9.82;;;22.80;80.70;;;;;;4985563;28;20035;-54
2023/07/22 10:36:48;;;;;;;53.72;8.13;;;22.90;80.30;;;;;;4985710;28;20067;-54
2023/07/22 10:39:25;;;;;;;64.45;9.73;;;22.90;79.80;;;;;;4969162;28;20035;-53
2023/07/22 10:41:57;;;;;;;59.95;8.50;;;22.90;79.30;;;;;;4986562;28;20456;-53
2023/07/22 10:44:25;;;;;;;54.75;8.63;;;23.00;79.20;;;;;;4985446;28;20042;-53
2023/07/22 10:46:56;;;;;;;60.80;9.40;;;23.00;78.80;;;;;;4985344;28;20395;-54
2023/07/22 10:49:22;;;;;;;43.55;8.43;;;23.10;78.30;;;;;;4970100;28;20038;-53
2023/07/22 10:51:49;;;;;;;61.13;9.50;;;23.10;77.80;;;;;;4989326;28;20091;-58
2023/07/22 10:54:15;;;;;;;45.38;8.20;;;23.20;77.50;;;;;;4988263;28;20041;-58
2023/07/22 10:56:44;;;;;;;59.65;8.45;;;23.20;77.20;;;;;;4988919;28;20035;-53
2023/07/22 10:59:12;;;;;;;49.03;8.23;;;23.30;77.10;;;;;;4970567;28;20083;-53
2023/07/22 11:01:43;;;;;;;51.00;8.18;;;23.30;76.70;;;;;;4983551;28;20015;-53
2023/07/22 11:04:13;;;;;;;53.97;8.57;;;23.30;76.10;;;;;;4988786;28;20122;-53
2023/07/22 11:06:39;;;;;;;47.25;8.40;;;23.30;75.80;;;;;;4986275;28;20039;-52
2023/07/22 11:09:05;;;;;;;52.20;8.13;;;23.30;75.30;;;;;;4990295;28;20039;-53
2023/07/22 11:11:45;;;;;;;46.08;7.88;;;23.40;75.00;;;;;;4972946;28;20042;-53
2023/07/22 11:14:17;;;;;;;39.92;6.78;;;23.40;74.40;;;;;;4957016;28;20035;-53
2023/07/22 11:16:44;;;;;;;46.85;5.93;;;23.40;74.10;;;;;;4988552;28;20027;-53
2023/07/22 11:19:10;;;;;;;50.88;7.80;;;23.40;73.60;;;;;;4988587;28;20031;-53
2023/07/22 11:21:36;;;;;;;61.90;8.05;;;23.40;73.60;;;;;;4988571;28;20506;-53
2023/07/22 11:24:04;;;;;;;47.22;6.75;;;23.50;73.60;;;;;;4988296;28;20023;-53
2023/07/22 11:26:30;;;;;;;46.55;6.60;;;23.50;73.40;;;;;;4989756;28;20058;-53
2023/07/22 11:28:56;;;;;;;48.53;8.18;;;23.60;73.30;;;;;;4972195;28;20035;-53
2023/07/22 11:31:21;;;;;;;35.15;5.78;;;23.70;72.70;;;;;;4956341;28;20035;-55
2023/07/22 11:33:47;;;;;;;44.05;6.65;;;23.80;72.40;;;;;;4988292;28;20031;-53
2023/07/22 11:36:13;;;;;;;63.20;7.13;;;23.80;71.70;;;;;;4989461;28;20026;-53
2023/07/22 11:38:39;;;;;;;58.45;7.93;;;23.90;71.10;;;;;;4989514;28;20282;-53
2023/07/22 11:41:04;;;;;;;46.80;6.78;;;24.00;71.30;;;;;;4987961;28;20066;-53
2023/07/22 11:43:30;;;;;;;64.03;8.43;;;24.10;71.30;;;;;;4987988;28;20066;-54
2023/07/22 11:45:55;;;;;;;58.75;7.40;;;24.20;70.30;;;;;;4987968;28;20030;-53
2023/07/22 11:48:21;;;;;;;49.58;7.50;;;24.30;69.40;;;;;;4971964;28;20089;-53
2023/07/22 11:50:46;;;;;;;36.72;6.95;;;24.40;70.40;;;;;;4971657;28;20027;-53
2023/07/22 11:53:13;;;;;;;42.00;6.25;;;24.40;69.80;;;;;;4971849;28;20038;-53
2023/07/22 11:55:38;;;;;;;46.22;6.38;;;24.50;69.30;;;;;;4971908;28;20027;-53
2023/07/22 11:58:04;;;;;;;47.00;6.72;;;24.60;68.80;;;;;;4971804;28;20113;-53
2023/07/22 12:00:29;;;;;;;42.88;6.15;;;24.70;68.30;;;;;;4971489;28;20023;-53
2023/07/22 12:02:57;;;;;;;31.55;5.75;;;24.80;67.70;;;;;;4969170;28;20069;-53
2023/07/22 12:05:22;;;;;;;30.08;5.20;;;24.90;67.80;;;;;;5003796;28;20037;-53
2023/07/22 12:07:48;;;;;;;42.20;6.13;;;24.90;67.70;;;;;;4988422;28;20031;-54
2023/07/22 12:10:15;;;;;;;45.92;5.90;;;24.90;67.40;;;;;;4989100;28;20029;-53
2023/07/22 12:12:45;;;;;;;47.65;6.55;;;25.00;67.30;;;;;;5003657;28;20089;-54
2023/07/22 12:15:18;;;;;;;53.10;7.72;;;25.10;67.10;;;;;;4987712;28;20018;-54
2023/07/22 12:17:54;;;;;;;53.17;7.88;;;25.10;66.90;;;;;;4988424;28;20046;-53
2023/07/22 12:20:23;;;;;;;48.70;8.27;;;25.20;66.70;;;;;;4997946;28;20031;-54
2023/07/22 12:22:49;;;;;;;56.35;8.85;;;25.30;66.30;;;;;;4984160;28;20031;-53
2023/07/22 12:25:14;;;;;;;63.40;8.52;;;25.40;66.00;;;;;;4984282;28;20026;-53
2023/07/22 12:27:40;;;;;;;59.17;8.45;;;25.40;65.60;;;;;;4983964;28;20042;-53
2023/07/22 12:30:07;;;;;;;58.58;8.95;;;25.50;65.30;;;;;;4967601;29;20522;-53
2023/07/22 12:32:33;;;;;;;68.57;9.80;;;25.60;65.50;;;;;;4983588;28;20075;-53
2023/07/22 12:34:58;;;;;;;64.85;9.18;;;25.60;65.10;;;;;;4984063;28;20051;-53
2023/07/22 12:37:25;;;;;;;83.72;9.02;;;25.70;65.10;;;;;;4984890;28;20124;-53